Time;durP1;ratioP1;P1;durP2;ratioP2;P2;SDS_P1;SDS_P2;PMS_P1;PMS_P2;Temp;Humidity;BMP_temperature;BMP_pressure;BME280_temperature;BME280_humidity;BME280_pressure;Samples;Min_cycle;Max_cycle;Signal;HPM_P1;HPM_P2
2022/10/04 00:01:49;;;;;;;;;;;;;;;21.12;53.66;102249.88;4984698;28;19917;-39
2022/10/04 00:04:40;;;;;;;;;;;;;;;21.13;53.74;102248.06;4983835;28;19924;-39
2022/10/04 00:07:13;;;;;;;;;;;;;;;21.13;53.99;102251.59;4988574;28;19929;-44
2022/10/04 00:09:44;;;;;;;;;;;;;;;21.12;53.82;102244.47;4985047;28;19921;-45
2022/10/04 00:12:21;;;;;;;;;;;;;;;21.10;54.03;102249.97;4984928;28;19922;-47
2022/10/04 00:14:47;;;;;;;;;;;;;;;21.13;53.86;102234.59;4984277;28;20663;-38
2022/10/04 00:17:19;;;;;;;;;;;;;;;21.10;53.57;102236.50;4983343;28;20372;-39
2022/10/04 00:19:48;;;;;;;;;;;;;;;21.07;53.80;102242.09;4982088;28;19921;-38
2022/10/04 00:22:20;;;;;;;;;;;;;;;21.07;53.92;102239.41;4982907;28;19917;-41
2022/10/04 00:25:04;;;;;;;;;;;;;;;21.06;53.61;102231.44;4982576;28;19917;-39
2022/10/04 00:27:29;;;;;;;;;;;;;;;21.07;53.48;102235.84;4976079;28;19917;-39
2022/10/04 00:30:01;;;;;;;;;;;;;;;21.06;53.53;102237.69;4981817;28;19987;-39
2022/10/04 00:32:29;;;;;;;;;;;;;;;21.04;53.53;102225.31;4982448;28;19918;-39
2022/10/04 00:34:55;;;;;;;;;;;;;;;21.04;53.82;102226.16;4982688;28;20864;-39
2022/10/04 00:37:21;;;;;;;;;;;;;;;21.06;53.60;102240.38;4983631;28;19973;-39
2022/10/04 00:39:56;;;;;;;;;;;;;;;21.00;53.71;102235.41;5014993;28;20342;-39
2022/10/04 00:42:34;;;;;;;;;;;;;;;21.02;53.57;102246.06;4982911;28;19960;-39
2022/10/04 00:45:15;;;;;;;;;;;;;;;20.98;54.01;102248.09;5015751;28;20016;-40
2022/10/04 00:47:46;;;;;;;;;;;;;;;21.02;53.57;102246.06;4982666;28;20420;-39
2022/10/04 00:50:16;;;;;;;;;;;;;;;20.97;54.02;102237.44;4990131;28;19928;-39
2022/10/04 00:52:45;;;;;;;;;;;;;;;20.97;53.64;102221.28;4990323;28;20509;-40
2022/10/04 00:55:18;;;;;;;;;;;;;;;20.96;53.96;102231.22;4981856;28;20445;-40
2022/10/04 00:57:46;;;;;;;;;;;;;;;20.98;53.62;102226.56;4982613;28;20245;-39
2022/10/04 01:00:17;;;;;;;;;;;;;;;20.98;54.11;102226.56;4981830;28;20413;-39
2022/10/04 01:02:44;;;;;;;;;;;;;;;20.95;53.72;102219.56;4982375;28;20289;-39
2022/10/04 01:05:10;;;;;;;;;;;;;;;20.95;53.67;102214.16;4981549;28;20059;-39
2022/10/04 01:07:38;;;;;;;;;;;;;;;20.91;53.99;102215.34;4982764;28;19921;-39
2022/10/04 01:10:07;;;;;;;;;;;;;;;20.90;54.03;102202.84;4980688;28;20654;-39
2022/10/04 01:12:38;;;;;;;;;;;;;;;20.91;54.17;102203.72;4977632;28;20702;-40
2022/10/04 01:15:24;;;;;;;;;;;;;;;20.92;53.80;102194.66;4981403;28;20113;-39
2022/10/04 01:18:13;;;;;;;;;;;;;;;20.90;54.00;102197.47;4978562;28;19925;-39
2022/10/04 01:20:47;;;;;;;;;;;;;;;20.89;54.01;102202.94;4981219;28;19921;-39
2022/10/04 01:23:29;;;;;;;;;;;;;;;20.90;53.72;102210.06;4979146;28;21302;-46
2022/10/04 01:25:55;;;;;;;;;;;;;;;20.85;53.93;102194.22;4979582;28;19917;-46
2022/10/04 01:28:20;;;;;;;;;;;;;;;20.84;54.26;102186.25;4980896;28;20584;-39
2022/10/04 01:30:46;;;;;;;;;;;;;;;20.84;54.07;102181.72;4973566;28;19917;-39
2022/10/04 01:33:11;;;;;;;;;;;;;;;20.85;53.95;102177.22;4978785;28;19921;-46
2022/10/04 01:35:37;;;;;;;;;;;;;;;20.87;53.78;102177.94;4982071;28;20053;-48
2022/10/04 01:38:05;;;;;;;;;;;;;;;20.84;53.95;102172.78;4979967;28;19929;-46
2022/10/04 01:40:31;;;;;;;;;;;;;;;20.82;53.78;102167.50;4981317;28;19921;-46
2022/10/04 01:43:00;;;;;;;;;;;;;;;20.86;53.80;102157.41;4983442;28;19921;-48
2022/10/04 01:45:30;;;;;;;;;;;;;;;20.83;53.88;102154.91;4984922;28;20366;-39
2022/10/04 01:47:58;;;;;;;;;;;;;;;20.84;53.94;102149.41;4984763;28;19925;-39
2022/10/04 01:50:30;;;;;;;;;;;;;;;20.82;53.78;102148.66;4984616;28;20012;-39
2022/10/04 01:53:15;;;;;;;;;;;;;;;20.79;54.24;102138.97;4985562;28;20020;-40
2022/10/04 01:55:43;;;;;;;;;;;;;;;20.77;54.35;102134.66;4984254;28;20689;-39
2022/10/04 01:58:18;;;;;;;;;;;;;;;20.80;53.83;102137.13;4990810;28;20026;-40
2022/10/04 02:00:50;;;;;;;;;;;;;;;20.78;53.85;102123.78;4991886;28;20429;-39
2022/10/04 02:03:18;;;;;;;;;;;;;;;20.75;54.42;102115.88;4984275;28;20474;-39
2022/10/04 02:05:48;;;;;;;;;;;;;;;20.75;54.26;102113.19;4985002;28;20004;-40
2022/10/04 02:08:15;;;;;;;;;;;;;;;20.75;53.96;102104.28;4984839;28;20366;-40
2022/10/04 02:10:41;;;;;;;;;;;;;;;20.72;54.50;102091.03;4984880;28;19921;-45
2022/10/04 02:13:08;;;;;;;;;;;;;;;20.72;54.35;102086.50;4984709;28;19932;-42
2022/10/04 02:15:37;;;;;;;;;;;;;;;20.73;54.03;102084.66;4984571;28;20366;-38
2022/10/04 02:18:05;;;;;;;;;;;;;;;20.71;54.07;102073.16;4983670;28;20453;-46
2022/10/04 02:20:31;;;;;;;;;;;;;;;20.70;53.87;102068.69;4984835;28;19931;-45
2022/10/04 02:23:02;;;;;;;;;;;;;;;20.69;54.48;102069.66;4984131;28;19917;-44
2022/10/04 02:25:28;;;;;;;;;;;;;;;20.67;54.49;102072.47;4985104;28;20305;-46
2022/10/04 02:27:53;;;;;;;;;;;;;;;20.66;54.44;102067.19;4983710;28;20261;-46
2022/10/04 02:30:19;;;;;;;;;;;;;;;20.67;54.56;102064.38;4984921;28;20416;-47
2022/10/04 02:32:56;;;;;;;;;;;;;;;20.68;54.11;102070.63;4983308;28;19940;-39
2022/10/04 02:35:23;;;;;;;;;;;;;;;20.68;54.32;102065.25;4984677;28;19921;-38
2022/10/04 02:37:52;;;;;;;;;;;;;;;20.66;54.51;102061.81;4983436;28;20343;-39
2022/10/04 02:40:21;;;;;;;;;;;;;;;20.60;54.25;102061.25;4984351;28;20568;-39
2022/10/04 02:43:10;;;;;;;;;;;;;;;20.60;54.54;102063.97;4984698;28;19948;-38
2022/10/04 02:45:38;;;;;;;;;;;;;;;20.63;54.50;102035.97;4988028;28;19932;-39
2022/10/04 02:48:10;;;;;;;;;;;;;;;20.61;54.28;102032.50;4983243;28;20412;-38
2022/10/04 02:50:43;;;;;;;;;;;;;;;20.61;54.14;102028.00;4982663;28;19922;-38
2022/10/04 02:53:18;;;;;;;;;;;;;;;20.59;54.26;102031.78;4982326;28;19917;-38
2022/10/04 02:55:44;;;;;;;;;;;;;;;20.60;54.44;102025.41;4983889;28;20469;-39
2022/10/04 02:58:13;;;;;;;;;;;;;;;20.57;54.71;102034.53;4982675;28;19921;-39
2022/10/04 03:00:46;;;;;;;;;;;;;;;20.60;54.54;102045.13;4984299;28;20425;-38
2022/10/04 03:03:47;;;;;;;;;;;;;;;20.57;54.20;102039.06;4983293;28;19924;-45
2022/10/04 03:06:18;;;;;;;;;;;;;;;20.55;54.63;102032.94;4999933;28;19966;-47
2022/10/04 03:08:51;;;;;;;;;;;;;;;20.58;54.54;102030.03;4987154;28;19928;-47
2022/10/04 03:11:19;;;;;;;;;;;;;;;20.57;54.77;102012.16;4983596;28;19921;-48
2022/10/04 03:13:46;;;;;;;;;;;;;;;20.55;54.27;102022.16;4984338;28;19980;-45
2022/10/04 03:16:11;;;;;;;;;;;;;;;20.54;54.65;102015.94;4983617;28;19932;-46
2022/10/04 03:18:37;;;;;;;;;;;;;;;20.52;54.73;102003.56;4983207;28;20317;-45
2022/10/04 03:21:06;;;;;;;;;;;;;;;20.56;54.57;102003.25;4983667;28;20405;-46
2022/10/04 03:23:32;;;;;;;;;;;;;;;20.54;54.41;101998.94;4984116;28;19936;-46
2022/10/04 03:25:58;;;;;;;;;;;;;;;20.50;54.90;101992.03;4983224;28;19921;-46
2022/10/04 03:28:24;;;;;;;;;;;;;;;20.50;54.64;101984.81;4984198;28;19921;-47
2022/10/04 03:30:49;;;;;;;;;;;;;;;20.48;54.95;101994.81;4982237;28;20245;-46
2022/10/04 03:33:17;;;;;;;;;;;;;;;20.48;54.94;101986.75;4977465;28;20501;-38
2022/10/04 03:35:45;;;;;;;;;;;;;;;20.46;54.49;101984.16;4983110;28;19922;-38
2022/10/04 03:38:11;;;;;;;;;;;;;;;20.44;55.05;101978.03;4981823;28;19936;-38
2022/10/04 03:40:38;;;;;;;;;;;;;;;20.47;54.54;101976.94;4982548;28;20377;-39
2022/10/04 03:43:04;;;;;;;;;;;;;;;20.48;54.89;101972.44;4983904;28;19925;-39
2022/10/04 03:45:31;;;;;;;;;;;;;;;20.48;54.98;101983.22;5013700;28;20393;-39
2022/10/04 03:48:01;;;;;;;;;;;;;;;20.51;54.50;101978.47;4983143;28;19948;-38
2022/10/04 03:50:28;;;;;;;;;;;;;;;20.46;54.57;101983.28;4982948;28;19940;-39
2022/10/04 03:52:58;;;;;;;;;;;;;;;20.45;54.56;101986.97;4983445;28;20373;-40
2022/10/04 03:55:30;;;;;;;;;;;;;;;20.43;54.55;101989.75;4983107;28;19925;-39
2022/10/04 03:57:55;;;;;;;;;;;;;;;20.40;55.12;101984.59;4982563;28;19925;-38
2022/10/04 04:00:21;;;;;;;;;;;;;;;20.41;54.60;101988.13;4982379;28;20493;-44
2022/10/04 04:02:46;;;;;;;;;;;;;;;20.40;54.68;101987.28;4983767;28;19922;-46
2022/10/04 04:05:15;;;;;;;;;;;;;;;20.36;54.80;101975.00;4982200;28;19921;-45
2022/10/04 04:07:45;;;;;;;;;;;;;;;20.38;54.75;101981.13;4982943;28;21379;-45
2022/10/04 04:10:22;;;;;;;;;;;;;;;20.40;55.11;101983.75;4981896;28;19917;-39
2022/10/04 04:12:53;;;;;;;;;;;;;;;20.39;54.96;101982.84;4982446;28;19921;-38
2022/10/04 04:15:18;;;;;;;;;;;;;;;20.40;54.86;101981.03;4982558;28;20485;-38
2022/10/04 04:17:50;;;;;;;;;;;;;;;20.40;54.63;101981.03;4982366;28;20401;-38
2022/10/04 04:20:18;;;;;;;;;;;;;;;20.40;54.97;101979.22;4982784;28;19921;-38
2022/10/04 04:22:55;;;;;;;;;;;;;;;20.40;55.09;101978.34;4974293;28;19921;-38
2022/10/04 04:25:23;;;;;;;;;;;;;;;20.39;54.98;101972.09;4982950;28;21665;-38
2022/10/04 04:27:49;;;;;;;;;;;;;;;20.37;54.67;101976.75;4981934;28;20283;-38
2022/10/04 04:30:15;;;;;;;;;;;;;;;20.35;55.19;101984.03;4983003;28;19967;-37
2022/10/04 04:32:44;;;;;;;;;;;;;;;20.34;55.20;101981.47;4982290;28;20352;-39
2022/10/04 04:35:20;;;;;;;;;;;;;;;20.35;54.88;101988.56;4983296;28;19976;-44
2022/10/04 04:38:00;;;;;;;;;;;;;;;20.33;54.92;101993.19;4975147;28;19971;-44
2022/10/04 04:40:25;;;;;;;;;;;;;;;20.31;55.38;101982.53;4982177;28;20055;-46
2022/10/04 04:42:51;;;;;;;;;;;;;;;20.34;55.28;101968.88;4982996;28;20575;-45
2022/10/04 04:45:21;;;;;;;;;;;;;;;20.33;55.28;101977.03;4981508;28;19922;-45
2022/10/04 04:47:49;;;;;;;;;;;;;;;20.34;55.05;101987.69;4982339;28;19926;-44
2022/10/04 04:50:23;;;;;;;;;;;;;;;20.32;55.40;101986.06;4981843;28;19953;-47
2022/10/04 04:52:53;;;;;;;;;;;;;;;20.29;54.90;101985.34;4982976;28;20370;-45
2022/10/04 04:55:21;;;;;;;;;;;;;;;20.27;55.03;101989.09;4982354;28;19959;-46
2022/10/04 04:57:49;;;;;;;;;;;;;;;20.28;55.34;101986.28;4981910;28;20127;-38
2022/10/04 05:00:17;;;;;;;;;;;;;;;20.31;55.11;101987.91;4981582;28;20037;-37
2022/10/04 05:02:49;;;;;;;;;;;;;;;20.29;55.45;101981.75;4990223;28;19948;-45
2022/10/04 05:05:16;;;;;;;;;;;;;;;20.29;55.21;101984.47;4981772;28;20557;-46
2022/10/04 05:07:44;;;;;;;;;;;;;;;20.26;55.51;101979.28;4983203;28;19917;-45
2022/10/04 05:10:20;;;;;;;;;;;;;;;20.27;55.22;101981.03;4982928;28;19926;-38
2022/10/04 05:12:45;;;;;;;;;;;;;;;20.38;54.78;101965.00;4981193;28;19924;-39
2022/10/04 05:15:11;;;;;;;;;;;;;;;20.61;54.51;101976.88;4982019;28;19921;-46
2022/10/04 05:17:37;;;;;;;;;;;;;;;20.66;54.07;101976.53;4986435;28;20189;-40
2022/10/04 05:20:03;;;;;;;;;;;;;;;20.74;53.60;101976.03;4985508;28;20023;-39
2022/10/04 05:22:29;;;;;;;;;;;;;;;20.89;53.07;101976.78;4984498;28;19921;-38
2022/10/04 05:24:57;;;;;;;;;;;;;;;20.92;52.89;101976.56;4985212;28;19975;-47
2022/10/04 05:27:26;;;;;;;;;;;;;;;20.92;53.31;101969.38;4985659;28;19922;-46
2022/10/04 05:30:10;;;;;;;;;;;;;;;20.95;53.58;101965.59;4985543;28;20540;-45
2022/10/04 05:32:49;;;;;;;;;;;;;;;21.04;52.96;101962.22;4984811;28;20387;-45
2022/10/04 05:35:19;;;;;;;;;;;;;;;21.14;53.00;101959.75;4984421;28;20864;-47
2022/10/04 05:37:51;;;;;;;;;;;;;;;21.27;52.99;101951.66;4991417;28;19976;-38
2022/10/04 05:40:27;;;;;;;;;;;;;;;21.42;52.13;101953.22;4984471;28;19932;-46
2022/10/04 05:42:54;;;;;;;;;;;;;;;21.52;52.17;101947.13;4984531;28;19967;-46
2022/10/04 05:45:23;;;;;;;;;;;;;;;21.62;52.03;101940.13;4977096;28;19932;-45
2022/10/04 05:47:50;;;;;;;;;;;;;;;21.68;51.51;101941.50;4983652;28;20441;-45
2022/10/04 05:50:22;;;;;;;;;;;;;;;21.76;51.39;101933.69;4983561;28;19921;-46
2022/10/04 05:52:49;;;;;;;;;;;;;;;21.80;51.86;101942.41;4985557;28;21344;-45
2022/10/04 05:55:16;;;;;;;;;;;;;;;21.91;51.73;101932.53;4984721;28;20400;-39
2022/10/04 05:58:00;;;;;;;;;;;;;;;21.98;51.50;101941.00;4985149;28;19929;-46
2022/10/04 06:00:33;;;;;;;;;;;;;;;22.03;51.30;101941.53;4985242;28;19922;-39
2022/10/04 06:03:08;;;;;;;;;;;;;;;22.08;51.10;101938.47;4984706;28;19920;-40
2022/10/04 06:05:36;;;;;;;;;;;;;;;22.14;51.34;101938.03;4984871;28;19949;-39
2022/10/04 06:08:08;;;;;;;;;;;;;;;22.20;50.90;101937.56;4984709;28;19949;-46
2022/10/04 06:11:09;;;;;;;;;;;;;;;22.22;50.74;101937.44;4984274;28;20131;-47
2022/10/04 06:13:50;;;;;;;;;;;;;;;22.21;50.91;101930.31;5003827;28;20514;-39
2022/10/04 06:16:21;;;;;;;;;;;;;;;22.14;51.14;101927.22;4988509;28;19932;-39
2022/10/04 06:19:04;;;;;;;;;;;;;;;22.09;51.32;101924.03;4984790;28;20568;-39
2022/10/04 06:21:33;;;;;;;;;;;;;;;22.02;51.68;101936.25;4984136;28;20282;-38
2022/10/04 06:24:04;;;;;;;;;;;;;;;21.95;51.56;101926.94;4985073;28;19917;-38
2022/10/04 06:26:51;;;;;;;;;;;;;;;21.84;52.15;101933.13;5016144;28;19921;-38
2022/10/04 06:29:19;;;;;;;;;;;;;;;21.75;52.24;101926.56;5014993;28;20134;-39
2022/10/04 06:31:47;;;;;;;;;;;;;;;21.72;52.26;101924.13;4984274;28;20393;-39
2022/10/04 06:34:27;;;;;;;;;;;;;;;21.67;52.70;101918.22;4983558;28;20528;-39
2022/10/04 06:36:58;;;;;;;;;;;;;;;21.62;52.96;101923.94;4984371;28;20068;-45
2022/10/04 06:39:24;;;;;;;;;;;;;;;21.63;52.50;101922.97;4983633;28;19925;-45
2022/10/04 06:42:08;;;;;;;;;;;;;;;21.60;52.68;101917.84;4984628;28;20763;-38
2022/10/04 06:44:36;;;;;;;;;;;;;;;21.57;52.61;101918.91;4984178;28;19988;-45
2022/10/04 06:47:17;;;;;;;;;;;;;;;21.56;52.84;101921.72;4983601;28;19952;-38
2022/10/04 06:49:51;;;;;;;;;;;;;;;21.53;52.80;101920.06;4983544;28;19917;-39
2022/10/04 06:52:39;;;;;;;;;;;;;;;21.49;52.72;101915.03;4982704;28;20062;-40
2022/10/04 06:55:24;;;;;;;;;;;;;;;21.50;52.88;101914.91;4982055;28;20016;-39
2022/10/04 06:57:57;;;;;;;;;;;;;;;21.51;53.01;101919.34;4982655;28;19921;-39
2022/10/04 07:00:25;;;;;;;;;;;;;;;21.54;52.82;101915.56;4983607;28;19932;-39
2022/10/04 07:02:50;;;;;;;;;;;;;;;21.45;52.81;101923.31;4983558;28;20016;-38
2022/10/04 07:05:35;;;;;;;;;;;;;;;21.43;52.80;101919.91;4982328;28;19921;-45
2022/10/04 07:08:29;;;;;;;;;;;;;;;21.42;52.80;101922.69;4983645;28;19943;-47
2022/10/04 07:10:55;;;;;;;;;;;;;;;21.39;53.00;101926.47;4984714;28;21736;-46
2022/10/04 07:13:27;;;;;;;;;;;;;;;21.41;52.86;101929.94;4982744;28;20666;-46
2022/10/04 07:16:00;;;;;;;;;;;;;;;21.43;53.09;101941.47;4983953;28;19926;-48
2022/10/04 07:18:31;;;;;;;;;;;;;;;21.39;52.90;101934.56;4983211;28;20024;-39
2022/10/04 07:21:03;;;;;;;;;;;;;;;21.42;52.69;101934.34;4983119;28;19943;-47
2022/10/04 07:23:36;;;;;;;;;;;;;;;21.37;52.84;101927.56;5014204;28;20149;-48
2022/10/04 07:26:05;;;;;;;;;;;;;;;21.41;52.98;101931.78;4982400;28;19921;-48
2022/10/04 07:31:26;;;;;;;;;;;;;;;21.37;52.84;101932.94;4983384;28;19928;-39
2022/10/04 07:33:57;;;;;;;;;;;;;;;21.38;53.02;101924.78;4984796;28;20385;-39
2022/10/04 07:36:28;;;;;;;;;;;;;;;21.41;52.82;101945.25;4984110;28;19921;-38
2022/10/04 07:38:58;;;;;;;;;;;;;;;21.45;52.76;101939.50;4982970;28;20385;-39
2022/10/04 07:41:48;;;;;;;;;;;;;;;21.42;52.35;101945.13;4983259;28;19921;-39
2022/10/04 07:44:29;;;;;;;;;;;;;;;21.41;52.52;101948.78;4982110;28;20045;-46
2022/10/04 07:47:00;;;;;;;;;;;;;;;21.44;52.65;101951.28;4983225;28;19918;-47
2022/10/04 07:49:26;;;;;;;;;;;;;;;21.45;52.39;101946.75;4983136;28;19921;-46
2022/10/04 07:51:51;;;;;;;;;;;;;;;21.48;52.25;101951.88;4983279;28;19921;-47
2022/10/04 07:54:32;;;;;;;;;;;;;;;21.49;52.47;101950.06;4982813;28;20381;-47
2022/10/04 07:56:59;;;;;;;;;;;;;;;21.43;52.58;101949.56;4982172;28;19921;-39
2022/10/04 07:59:38;;;;;;;;;;;;;;;21.44;52.46;101953.97;4983206;28;20475;-39
2022/10/04 08:02:25;;;;;;;;;;;;;;;21.46;52.45;101948.47;4983390;28;19928;-39
2022/10/04 08:04:54;;;;;;;;;;;;;;;21.50;52.25;101954.50;4982989;28;19986;-39
2022/10/04 08:07:25;;;;;;;;;;;;;;;21.51;52.53;101950.78;5013238;28;19960;-39
2022/10/04 08:10:09;;;;;;;;;;;;;;;21.52;52.26;101949.81;4981971;28;20033;-46
2022/10/04 08:12:43;;;;;;;;;;;;;;;21.48;52.57;101935.72;4983219;28;19913;-47
2022/10/04 08:15:27;;;;;;;;;;;;;;;21.54;52.54;101945.19;4982676;28;20448;-47
2022/10/04 08:17:59;;;;;;;;;;;;;;;21.57;52.87;101939.59;4981591;28;19926;-47
2022/10/04 08:20:43;;;;;;;;;;;;;;;21.56;52.42;101937.88;4983022;28;20372;-48
2022/10/04 08:23:26;;;;;;;;;;;;;;;21.55;52.58;101947.81;4982598;28;19922;-39
2022/10/04 08:26:16;;;;;;;;;;;;;;;21.57;52.78;101940.47;4982498;28;20226;-39
2022/10/04 08:31:37;;;;;;;;;;;;;;;21.57;52.89;101928.81;4982659;28;19932;-51
2022/10/04 08:34:14;;;;;;;;;;;;;;;21.57;53.19;101928.81;4981739;28;19957;-49
2022/10/04 08:36:58;;;;;;;;;;;;;;;21.54;53.35;101932.56;4983226;28;19971;-47
2022/10/04 08:39:31;;;;;;;;;;;;;;;21.54;53.00;101932.56;4982140;28;19925;-48
2022/10/04 08:41:56;;;;;;;;;;;;;;;21.56;53.42;101929.78;4977361;28;19921;-38
2022/10/04 08:44:28;;;;;;;;;;;;;;;21.65;53.30;101933.63;4973258;28;21027;-37
2022/10/04 08:47:12;;;;;;;;;;;;;;;21.63;53.01;101935.59;4976366;28;19968;-39
2022/10/04 08:50:01;;;;;;;;;;;;;;;21.60;53.52;101929.47;4975640;28;19996;-39
2022/10/04 08:52:38;;;;;;;;;;;;;;;21.64;52.99;101931.91;4977642;28;20794;-42
2022/10/04 08:55:06;;;;;;;;;;;;;;;21.67;53.43;101939.78;4978890;28;19917;-36
2022/10/04 08:57:34;;;;;;;;;;;;;;;21.69;53.48;101936.00;4977880;28;19929;-35
2022/10/04 09:00:19;;;;;;;;;;;;;;;21.70;53.21;101937.72;4978521;28;19917;-36
2022/10/04 09:03:04;;;;;;;;;;;;;;;21.73;53.26;101926.69;4978626;28;20078;-49
2022/10/04 09:05:29;;;;;;;;;;;;;;;21.83;53.00;101929.56;4980162;28;19921;-42
2022/10/04 09:08:13;;;;;;;;;;;;;;;21.86;52.97;101931.19;4981805;28;20385;-43
2022/10/04 09:10:46;;;;;;;;;;;;;;;21.91;52.88;101937.09;4980118;28;19925;-42
2022/10/04 09:13:24;;;;;;;;;;;;;;;21.93;53.00;101938.69;4979842;28;20197;-44
2022/10/04 09:16:16;;;;;;;;;;;;;;;21.97;52.98;101928.53;4979437;28;20037;-43
2022/10/04 09:18:50;;;;;;;;;;;;;;;22.00;52.84;101930.97;4986082;28;19928;-43
2022/10/04 09:21:41;;;;;;;;;;;;;;;22.06;52.94;101924.28;4981359;28;19921;-42
2022/10/04 09:24:25;;;;;;;;;;;;;;;22.04;52.65;101935.16;4979363;28;20274;-47
2022/10/04 09:26:58;;;;;;;;;;;;;;;22.14;52.29;101915.59;4978862;28;20781;-44
2022/10/04 09:29:30;;;;;;;;;;;;;;;22.16;52.42;101905.53;4980444;28;19917;-44
2022/10/04 09:32:02;;;;;;;;;;;;;;;22.20;52.34;101894.38;5011952;28;19925;-45
2022/10/04 09:34:30;;;;;;;;;;;;;;;22.26;52.21;101893.91;4979221;28;20440;-37
2022/10/04 09:37:01;;;;;;;;;;;;;;;22.27;52.10;101898.31;4978690;28;19917;-45
2022/10/04 09:39:45;;;;;;;;;;;;;;;22.32;51.89;101886.31;4978244;28;20369;-48
2022/10/04 09:42:13;;;;;;;;;;;;;;;22.29;52.09;101894.63;4978107;28;19968;-48
2022/10/04 09:44:44;;;;;;;;;;;;;;;22.26;52.04;101899.31;4978313;28;19921;-47
2022/10/04 09:47:30;;;;;;;;;;;;;;;22.25;52.09;101905.69;4976922;28;19971;-43
2022/10/04 09:50:16;;;;;;;;;;;;;;;22.23;52.12;101915.72;4977498;28;20621;-37
2022/10/04 09:52:57;;;;;;;;;;;;;;;22.25;51.93;101924.56;4977388;28;19917;-36
2022/10/04 09:55:40;;;;;;;;;;;;;;;22.29;52.21;101924.31;4979113;28;20048;-40
2022/10/04 09:58:06;;;;;;;;;;;;;;;22.31;52.27;101915.13;4978193;28;20293;-46
2022/10/04 10:00:38;;;;;;;;;;;;;;;22.35;52.01;101922.00;5011272;28;20400;-44
2022/10/04 10:03:11;;;;;;;;;;;;;;;22.35;52.23;101911.19;4977410;28;19921;-39
2022/10/04 10:05:54;;;;;;;;;;;;;;;22.34;52.07;101906.81;4978296;28;19922;-43
2022/10/04 10:08:20;;;;;;;;;;;;;;;22.32;52.10;101907.91;5009891;28;19964;-43
2022/10/04 10:13:54;;;;;;;;;;;;;;;22.32;52.37;101916.84;4977260;28;20439;-44
2022/10/04 10:16:24;;;;;;;;;;;;;;;22.37;52.07;101911.13;4976157;28;20051;-45
2022/10/04 10:18:55;;;;;;;;;;;;;;;22.39;52.18;101917.25;4977170;28;20110;-46
2022/10/04 10:21:39;;;;;;;;;;;;;;;22.43;51.97;101902.56;4979548;28;20680;-47
2022/10/04 10:24:13;;;;;;;;;;;;;;;22.45;51.97;101905.13;4978868;28;20178;-44
2022/10/04 10:26:41;;;;;;;;;;;;;;;22.47;52.01;101901.34;4978065;28;20413;-39
2022/10/04 10:29:15;;;;;;;;;;;;;;;22.49;52.22;101896.66;4977596;28;19918;-42
2022/10/04 10:31:41;;;;;;;;;;;;;;;;;;4971601;28;19924;-47
2022/10/04 10:34:17;;;;;;;;;;;;;;;22.58;51.82;101890.56;4978285;28;19924;-44
2022/10/04 10:36:48;;;;;;;;;;;;;;;22.57;51.90;101882.56;4978551;28;20257;-42
2022/10/04 10:39:19;;;;;;;;;;;;;;;22.57;51.97;101893.34;4977031;28;19929;-43
2022/10/04 10:41:51;;;;;;;;;;;;;;;22.62;51.94;101893.00;4977799;28;19925;-41
2022/10/04 10:44:37;;;;;;;;;;;;;;;22.65;51.75;101890.91;4978269;28;20080;-40
2022/10/04 10:47:11;;;;;;;;;;;;;;;22.71;52.13;101892.25;4979123;28;19929;-44
2022/10/04 10:49:36;;;;;;;;;;;;;;;22.72;51.72;101893.97;4979310;28;19935;-44
2022/10/04 10:52:34;;;;;;;;;;;;;;;22.76;51.87;101892.75;4980326;28;20324;-43
2022/10/04 10:55:19;;;;;;;;;;;;;;;22.80;51.56;101891.53;4978814;28;20411;-42
2022/10/04 10:58:03;;;;;;;;;;;;;;;22.83;51.32;101883.19;4979235;28;19921;-39
2022/10/04 11:00:49;;;;;;;;;;;;;;;22.82;51.85;101878.75;4978666;28;20174;-38
2022/10/04 11:03:40;;;;;;;;;;;;;;;22.88;51.54;101886.34;4978710;28;19928;-38
2022/10/04 11:06:08;;;;;;;;;;;;;;;22.87;51.72;101883.78;4992617;28;20636;-36
2022/10/04 11:08:54;;;;;;;;;;;;;;;22.94;51.44;101887.69;4973142;28;20676;-37
2022/10/04 11:11:40;;;;;;;;;;;;;;;22.94;51.56;101892.25;4977828;28;20002;-41
2022/10/04 11:14:24;;;;;;;;;;;;;;;22.96;51.27;101887.59;4977432;28;19996;-39
2022/10/04 11:17:05;;;;;;;;;;;;;;;22.97;51.47;101890.16;4978395;28;19967;-39
2022/10/04 11:19:49;;;;;;;;;;;;;;;22.96;51.17;101896.53;4978007;28;20282;-39
2022/10/04 11:22:33;;;;;;;;;;;;;;;22.94;51.38;101886.84;4975797;28;20412;-37
2022/10/04 11:24:58;;;;;;;;;;;;;;;22.88;51.53;101893.63;4978925;28;19924;-46
2022/10/04 11:27:54;;;;;;;;;;;;;;;22.86;51.70;101903.66;4977378;28;20284;-45
2022/10/04 11:30:23;;;;;;;;;;;;;;;22.79;51.94;101895.22;5010494;28;20540;-47
2022/10/04 11:32:51;;;;;;;;;;;;;;;22.78;51.69;101887.25;4976794;28;20063;-45
2022/10/04 11:35:35;;;;;;;;;;;;;;;22.77;51.74;101888.22;4978973;28;19923;-45
2022/10/04 11:38:19;;;;;;;;;;;;;;;22.77;51.56;101886.38;4978230;28;19960;-47
2022/10/04 11:41:00;;;;;;;;;;;;;;;22.77;51.70;101878.25;4978782;28;19928;-45
2022/10/04 11:43:45;;;;;;;;;;;;;;;22.76;51.69;101887.34;4977403;28;20526;-46
2022/10/04 11:46:16;;;;;;;;;;;;;;;22.77;51.56;101878.25;4977986;28;20360;-36
2022/10/04 11:48:56;;;;;;;;;;;;;;;22.75;51.81;101889.19;4978738;28;19963;-36
2022/10/04 11:51:37;;;;;;;;;;;;;;;22.78;51.56;101884.53;4978521;28;19947;-45
2022/10/04 11:54:08;;;;;;;;;;;;;;;22.77;51.70;101874.72;5007330;28;19929;-36
2022/10/04 11:56:36;;;;;;;;;;;;;;;22.78;51.75;101861.09;4977852;28;19929;-36
2022/10/04 11:59:09;;;;;;;;;;;;;;;22.81;51.62;101855.41;4978523;28;19966;-36
2022/10/04 12:01:43;;;;;;;;;;;;;;;22.83;52.16;101861.56;4978815;28;19921;-45
2022/10/04 12:04:08;;;;;;;;;;;;;;;22.89;51.67;101861.06;4975098;28;20701;-44
2022/10/04 12:06:34;;;;;;;;;;;;;;;22.95;51.76;101861.56;4976387;28;20504;-43
2022/10/04 12:09:18;;;;;;;;;;;;;;;22.98;51.56;101854.06;4975808;28;19927;-44
2022/10/04 12:14:49;;;;;;;;;;;;;;;23.07;51.23;101844.34;4974784;28;19991;-44
2022/10/04 12:17:35;;;;;;;;;;;;;;;23.11;51.25;101840.41;4976387;28;19948;-45
2022/10/04 12:20:15;;;;;;;;;;;;;;;23.14;50.96;101839.31;4977230;28;19932;-43
2022/10/04 12:22:41;;;;;;;;;;;;;;;23.15;51.13;101828.38;4977371;28;20650;-43
2022/10/04 12:25:25;;;;;;;;;;;;;;;23.21;51.03;101825.19;4984152;28;19921;-45
2022/10/04 12:28:15;;;;;;;;;;;;;;;23.15;51.24;101819.44;4977786;28;20592;-43
2022/10/04 12:30:57;;;;;;;;;;;;;;;23.11;51.53;101821.50;5009429;28;20035;-42
2022/10/04 12:33:22;;;;;;;;;;;;;;;23.13;51.84;101821.38;4977285;28;19917;-45
2022/10/04 12:36:12;;;;;;;;;;;;;;;23.52;55.10;101803.69;4977259;28;19964;-50
2022/10/04 12:39:04;;;;;;;;;;;;;;;23.78;54.66;101810.56;4978501;28;19921;-50
2022/10/04 12:41:44;;;;;;;;;;;;;;;23.83;54.08;101806.47;4988782;28;19987;-49
2022/10/04 12:44:15;;;;;;;;;;;;;;;23.90;53.42;101798.66;4977023;28;21253;-46
2022/10/04 12:46:56;;;;;;;;;;;;;;;23.91;53.58;101800.41;4977461;28;20059;-43
2022/10/04 12:49:45;;;;;;;;;;;;;;;23.94;53.69;101802.00;4977802;28;20592;-45
2022/10/04 12:52:15;;;;;;;;;;;;;;;23.99;53.62;101794.34;4977965;28;19925;-46
2022/10/04 12:54:46;;;;;;;;;;;;;;;24.03;53.21;101785.81;4976693;28;19921;-39
2022/10/04 12:57:27;;;;;;;;;;;;;;;24.07;53.09;101789.13;4977527;28;20748;-36
2022/10/04 13:00:10;;;;;;;;;;;;;;;24.12;53.93;101780.59;4977356;28;20166;-43
2022/10/04 13:02:46;;;;;;;;;;;;;;;24.18;53.30;101778.22;4977461;28;20534;-45
